Time;durP1;ratioP1;P1;durP2;ratioP2;P2;SDS_P1;SDS_P2;PMS_P1;PMS_P2;Temp;Humidity;BMP_temperature;BMP_pressure;BME280_temperature;BME280_humidity;BME280_pressure;Samples;Min_cycle;Max_cycle;Signal;HPM_P1;HPM_P2
2021/10/04 00:02:05;;;;;;;18.92;8.90;;;384.00;1971.20;;;;;;5112749;28;20012;-76
2021/10/04 00:04:31;;;;;;;20.40;8.82;;;359.30;1971.20;;;;;;5113278;28;20385;-77
2021/10/04 00:06:56;;;;;;;15.77;9.10;;;384.00;1971.20;;;;;;5094048;28;20034;-78
2021/10/04 00:09:23;;;;;;;17.98;9.18;;;359.30;1971.20;;;;;;5112884;28;20430;-77
2021/10/04 00:11:49;;;;;;;18.50;7.85;;;359.30;1996.80;;;;;;5109618;28;20154;-78
2021/10/04 00:14:15;;;;;;;13.70;8.07;;;384.00;1971.20;;;;;;5113046;28;20066;-77
2021/10/04 00:16:49;;;;;;;16.00;7.45;;;359.30;1996.80;;;;;;5093475;28;20058;-79
2021/10/04 00:19:15;;;;;;;12.63;7.85;;;384.00;1971.20;;;;;;5092249;28;20016;-77
2021/10/04 00:21:41;;;;;;;12.93;6.80;;;384.00;1971.20;;;;;;5112694;28;20027;-77
2021/10/04 00:24:07;;;;;;;17.17;7.80;;;359.30;1996.80;;;;;;5112499;28;20020;-79
2021/10/04 00:26:32;;;;;;;13.00;7.28;;;359.30;1996.80;;;;;;5094439;28;20038;-78
2021/10/04 00:28:58;;;;;;;13.60;7.38;;;359.30;1996.80;;;;;;5112452;28;20023;-78
2021/10/04 00:31:27;;;;;;;14.82;8.48;;;359.30;1996.80;;;;;;5094271;28;20030;-79
2021/10/04 00:33:53;;;;;;;12.90;6.78;;;359.30;1971.20;;;;;;5094233;28;20027;-79
2021/10/04 00:36:19;;;;;;;15.05;6.97;;;359.30;1996.80;;;;;;5112812;28;20020;-78
2021/10/04 00:38:46;;;;;;;12.20;7.63;;;359.20;1996.80;;;;;;5112219;28;20510;-77
2021/10/04 00:41:12;;;;;;;15.30;7.85;;;359.20;2022.40;;;;;;5112286;28;20031;-79
2021/10/04 00:43:40;;;;;;;22.73;7.95;;;359.10;2022.40;;;;;;5112821;28;20361;-77
2021/10/04 00:46:06;;;;;;;15.20;6.65;;;359.10;2022.40;;;;;;5112463;28;20490;-78
2021/10/04 00:48:34;;;;;;;15.60;7.28;;;359.00;2022.40;;;;;;5094135;28;20035;-78
2021/10/04 00:51:00;;;;;;;14.70;7.07;;;359.00;2022.40;;;;;;5093462;28;20073;-77
2021/10/04 00:53:26;;;;;;;14.98;7.95;;;359.00;2022.40;;;;;;5093348;28;20028;-78
2021/10/04 00:55:52;;;;;;;13.70;7.18;;;359.00;2022.40;;;;;;5093237;28;20040;-76
2021/10/04 00:58:18;;;;;;;13.38;6.90;;;359.00;2022.40;;;;;;5094384;28;20047;-80
2021/10/04 01:00:44;;;;;;;10.95;7.00;;;359.00;2022.40;;;;;;5093797;28;20035;-76
2021/10/04 01:03:58;;;;;;;18.20;7.97;;;359.10;2022.40;;;;;;5112366;28;20047;-76
2021/10/04 01:06:25;;;;;;;10.98;6.53;;;359.00;2022.40;;;;;;5092971;28;20073;-76
2021/10/04 01:08:51;;;;;;;10.18;6.45;;;359.00;2022.40;;;;;;5090099;28;20084;-76
2021/10/04 01:11:18;;;;;;;20.27;7.30;;;358.90;2022.40;;;;;;5111560;28;20040;-76
2021/10/04 01:13:43;;;;;;;16.20;7.32;;;359.00;2048.00;;;;;;5111917;28;20061;-76
2021/10/04 01:16:09;;;;;;;15.48;6.82;;;359.00;2022.40;;;;;;5111621;28;20476;-76
2021/10/04 01:18:54;;;;;;;15.70;7.38;;;358.90;2048.00;;;;;;5111945;28;20146;-76
2021/10/04 01:21:20;;;;;;;16.10;6.78;;;358.90;2022.40;;;;;;5092142;28;20020;-77
2021/10/04 01:23:46;;;;;;;13.65;6.38;;;358.90;2048.00;;;;;;5111956;28;20039;-77
2021/10/04 01:26:12;;;;;;;13.07;6.25;;;359.00;2022.40;;;;;;5111707;28;20027;-77
2021/10/04 01:28:38;;;;;;;17.08;7.60;;;359.00;2022.40;;;;;;5115954;28;20089;-76
2021/10/04 01:31:21;;;;;;;;;;;;;;;;;;;;;
2021/10/04 01:33:50;;;;;;;12.52;6.28;;;359.00;2022.40;;;;;;5115121;28;20030;-77
2021/10/04 01:36:17;;;;;;;18.73;8.02;;;358.90;2022.40;;;;;;5097863;28;20594;-78
2021/10/04 01:38:43;;;;;;;11.73;6.55;;;358.90;2022.40;;;;;;5098761;28;20051;-76
2021/10/04 01:41:09;;;;;;;18.33;6.90;;;359.00;2022.40;;;;;;5117527;28;20039;-79
2021/10/04 01:43:35;;;;;;;12.70;5.88;;;359.00;2022.40;;;;;;5117778;28;20396;-76
2021/10/04 01:46:01;;;;;;;16.05;6.70;;;359.00;2022.40;;;;;;5115561;28;20019;-77
2021/10/04 01:48:27;;;;;;;12.80;6.82;;;359.00;2022.40;;;;;;5115582;28;20771;-78
2021/10/04 01:50:53;;;;;;;9.80;5.97;;;359.00;2022.40;;;;;;5115662;28;20420;-76
2021/10/04 01:53:20;;;;;;;10.85;6.32;;;359.00;2022.40;;;;;;5115961;28;20047;-75
2021/10/04 01:55:46;;;;;;;10.15;6.10;;;359.00;2022.40;;;;;;5097331;28;20032;-76
2021/10/04 01:58:12;;;;;;;10.82;6.18;;;359.00;2022.40;;;;;;5115520;28;20016;-76
2021/10/04 02:00:38;;;;;;;12.38;6.85;;;359.00;2022.40;;;;;;5115254;28;20027;-76
2021/10/04 02:03:04;;;;;;;11.35;6.03;;;359.00;2022.40;;;;;;5096520;28;20023;-75
2021/10/04 02:05:32;;;;;;;10.00;6.00;;;358.90;2022.40;;;;;;5115463;28;20020;-75
2021/10/04 02:07:58;;;;;;;11.23;5.63;;;359.00;2022.40;;;;;;5114960;28;20019;-76
2021/10/04 02:10:31;;;;;;;13.70;6.07;;;359.00;2022.40;;;;;;5096959;28;20052;-76
2021/10/04 02:12:59;;;;;;;14.05;5.47;;;358.90;2022.40;;;;;;5113101;28;20015;-75
2021/10/04 02:15:25;;;;;;;13.60;6.22;;;359.00;2022.40;;;;;;5115489;28;20102;-75
2021/10/04 02:17:51;;;;;;;12.38;5.65;;;358.90;2022.40;;;;;;5096054;28;20027;-75
2021/10/04 02:20:22;;;;;;;13.90;5.97;;;358.90;2022.40;;;;;;5115654;28;20019;-76
2021/10/04 02:22:49;;;;;;;10.77;5.70;;;358.90;2022.40;;;;;;5115399;28;20046;-75
2021/10/04 02:25:15;;;;;;;9.20;5.38;;;358.90;2022.40;;;;;;5097068;28;20064;-76
2021/10/04 02:27:43;;;;;;;12.13;6.32;;;358.90;2022.40;;;;;;5097094;28;20490;-76
2021/10/04 02:30:16;;;;;;;12.00;5.45;;;358.90;2022.40;;;;;;5096934;28;20089;-77
2021/10/04 02:32:42;;;;;;;11.02;5.72;;;358.90;2022.40;;;;;;5096886;28;20030;-77
2021/10/04 02:35:08;;;;;;;12.93;5.57;;;358.90;1996.80;;;;;;5114704;28;20043;-75
2021/10/04 02:37:34;;;;;;;8.23;5.07;;;358.90;2022.40;;;;;;5112444;28;20025;-76
2021/10/04 02:40:00;;;;;;;10.88;5.28;;;358.90;2022.40;;;;;;5095446;28;20080;-76
2021/10/04 02:42:26;;;;;;;8.82;5.63;;;358.90;1996.80;;;;;;5115078;28;20068;-76
2021/10/04 02:44:52;;;;;;;9.10;5.88;;;359.00;1996.80;;;;;;5114544;28;20504;-76
2021/10/04 02:47:18;;;;;;;9.82;5.50;;;359.00;1996.80;;;;;;5114417;28;20036;-78
2021/10/04 02:49:43;;;;;;;11.50;5.95;;;359.00;1971.20;;;;;;5114509;28;20110;-77
2021/10/04 02:52:36;;;;;;;11.18;5.47;;;359.10;1971.20;;;;;;5114166;28;20028;-76
2021/10/04 02:55:03;;;;;;;8.20;5.05;;;359.10;1971.20;;;;;;5112636;28;20028;-78
2021/10/04 02:57:29;;;;;;;9.15;5.72;;;384.30;1971.20;;;;;;5114195;28;20020;-76
2021/10/04 02:59:54;;;;;;;14.52;6.28;;;359.10;1971.20;;;;;;5093167;28;20027;-76
2021/10/04 03:02:21;;;;;;;11.05;5.30;;;359.10;1971.20;;;;;;5096255;28;20027;-77
2021/10/04 03:04:47;;;;;;;11.07;5.63;;;359.10;1971.20;;;;;;5114163;28;20023;-77
2021/10/04 03:07:12;;;;;;;17.50;5.82;;;359.00;1971.20;;;;;;5095519;28;20096;-79
2021/10/04 03:09:38;;;;;;;9.13;4.93;;;359.00;1971.20;;;;;;5095218;28;20039;-77
2021/10/04 03:12:04;;;;;;;9.05;5.43;;;359.00;1996.80;;;;;;5095811;28;20050;-77
2021/10/04 03:14:30;;;;;;;10.82;5.40;;;359.00;1971.20;;;;;;5095602;28;20039;-77
2021/10/04 03:16:56;;;;;;;9.48;4.45;;;358.90;1996.80;;;;;;5114268;28;20019;-78
2021/10/04 03:19:22;;;;;;;17.35;4.70;;;358.90;1996.80;;;;;;5094937;28;20123;-79
2021/10/04 03:21:47;;;;;;;16.80;6.00;;;358.90;1996.80;;;;;;5095838;28;20027;-78
2021/10/04 03:24:15;;;;;;;10.82;5.30;;;358.80;1996.80;;;;;;5113627;28;20422;-78
2021/10/04 03:26:42;;;;;;;10.40;5.47;;;359.10;1996.80;;;;;;5094542;28;20122;-78
2021/10/04 03:29:09;;;;;;;7.75;5.28;;;358.80;1996.80;;;;;;5095170;28;20024;-78
2021/10/04 03:31:36;;;;;;;16.13;5.57;;;358.70;2022.40;;;;;;5095328;28;20381;-78
2021/10/04 03:34:02;;;;;;;9.75;5.85;;;358.70;2022.40;;;;;;5113768;28;20094;-76
2021/10/04 03:36:28;;;;;;;9.15;5.43;;;358.70;2022.40;;;;;;5095281;28;20027;-79
2021/10/04 03:38:54;;;;;;;10.30;4.82;;;358.70;2022.40;;;;;;5094840;28;20032;-77
2021/10/04 03:41:20;;;;;;;10.95;5.95;;;358.70;2022.40;;;;;;5094643;28;20461;-78
2021/10/04 03:43:46;;;;;;;15.15;5.93;;;358.70;2022.40;;;;;;5113483;28;20034;-78
2021/10/04 03:46:12;;;;;;;10.13;5.10;;;358.60;2022.40;;;;;;5113356;28;20027;-78
2021/10/04 03:48:37;;;;;;;11.55;5.70;;;358.60;2048.00;;;;;;5095074;28;20035;-78
2021/10/04 03:51:03;;;;;;;9.73;4.55;;;358.60;2048.00;;;;;;5094604;28;20389;-76
2021/10/04 03:53:29;;;;;;;9.80;5.93;;;358.60;2048.00;;;;;;5113008;28;20488;-77
2021/10/04 03:55:55;;;;;;;8.52;5.30;;;358.60;2048.00;;;;;;5094433;28;20092;-77
2021/10/04 03:58:20;;;;;;;7.95;4.78;;;358.60;2048.00;;;;;;5113129;28;20469;-77
2021/10/04 04:00:46;;;;;;;12.98;5.38;;;358.60;2048.00;;;;;;5113128;28;20030;-77
2021/10/04 04:03:12;;;;;;;10.77;4.82;;;358.60;2048.00;;;;;;5094596;28;20048;-78
2021/10/04 04:05:38;;;;;;;17.48;4.82;;;358.60;2048.00;;;;;;5113143;28;20015;-78
2021/10/04 04:08:05;;;;;;;10.30;5.38;;;358.60;2048.00;;;;;;5112646;28;20029;-77
2021/10/04 04:10:31;;;;;;;10.07;5.05;;;358.50;2022.40;;;;;;5112725;28;20039;-78
2021/10/04 04:12:56;;;;;;;16.65;4.70;;;358.60;2048.00;;;;;;5094547;28;20095;-78
2021/10/04 04:15:22;;;;;;;8.60;4.55;;;358.60;2022.40;;;;;;5113043;28;20059;-78
2021/10/04 04:17:48;;;;;;;10.32;4.85;;;358.60;2022.40;;;;;;5094112;28;20038;-78
2021/10/04 04:20:14;;;;;;;12.98;4.68;;;358.60;2048.00;;;;;;5112603;28;20098;-77
2021/10/04 04:22:40;;;;;;;9.57;4.28;;;358.60;2022.40;;;;;;5113071;28;20088;-76
2021/10/04 04:25:07;;;;;;;10.05;4.88;;;358.60;2022.40;;;;;;5112472;28;20042;-77
2021/10/04 04:27:37;;;;;;;12.73;4.82;;;358.60;2022.40;;;;;;5113491;28;20032;-77
2021/10/04 04:30:05;;;;;;;7.65;4.40;;;358.50;2022.40;;;;;;5094075;28;20057;-78
2021/10/04 04:32:31;;;;;;;8.63;5.10;;;358.60;2022.40;;;;;;5112675;28;20012;-77
2021/10/04 04:34:57;;;;;;;11.38;4.82;;;358.60;2022.40;;;;;;5112241;28;20027;-78
2021/10/04 04:37:22;;;;;;;11.10;5.82;;;358.60;2022.40;;;;;;5094458;28;20023;-77
2021/10/04 04:39:48;;;;;;;11.48;5.20;;;358.70;2022.40;;;;;;5112176;28;20038;-77
2021/10/04 04:42:14;;;;;;;9.38;4.45;;;358.70;2022.40;;;;;;5107723;28;20418;-76
2021/10/04 04:44:40;;;;;;;12.48;5.53;;;358.70;2022.40;;;;;;5112786;28;20022;-77
2021/10/04 04:47:05;;;;;;;9.80;4.68;;;358.70;2022.40;;;;;;5093218;28;20024;-78
2021/10/04 04:49:31;;;;;;;8.90;5.05;;;358.60;2022.40;;;;;;5108788;28;20481;-78
2021/10/04 04:51:59;;;;;;;9.38;5.72;;;358.60;2022.40;;;;;;5112109;28;20095;-77
2021/10/04 04:54:25;;;;;;;11.27;5.22;;;358.60;2022.40;;;;;;5112733;28;20038;-81
2021/10/04 04:56:54;;;;;;;15.43;5.43;;;358.70;2022.40;;;;;;5112959;28;20019;-79
2021/10/04 05:00:11;;;;;;;;;;;;;;;;;;;;;
2021/10/04 05:02:37;;;;;;;11.55;5.22;;;358.80;2022.40;;;;;;5008526;28;20036;-78
2021/10/04 05:05:05;;;;;;;15.50;5.72;;;358.80;2022.40;;;;;;5009762;28;20482;-78
2021/10/04 05:07:31;;;;;;;9.25;4.85;;;358.80;2022.40;;;;;;4993235;28;20141;-78
2021/10/04 05:10:00;;;;;;;10.60;5.53;;;358.80;1996.80;;;;;;5015463;28;20064;-77
2021/10/04 05:12:28;;;;;;;14.80;5.45;;;358.80;1996.80;;;;;;5012838;28;20192;-76
2021/10/04 05:15:06;;;;;;;15.40;6.95;;;358.90;1996.80;;;;;;4993962;28;20711;-76
2021/10/04 05:17:31;;;;;;;21.40;7.72;;;358.90;1996.80;;;;;;4993058;28;20025;-75
2021/10/04 05:19:57;;;;;;;13.18;6.82;;;359.00;1996.80;;;;;;5009608;28;20030;-75
2021/10/04 05:22:38;;;;;;;15.32;8.07;;;359.00;1996.80;;;;;;5008844;28;20061;-77
2021/10/04 05:25:06;;;;;;;13.65;8.15;;;359.00;1971.20;;;;;;5009051;28;20064;-77
2021/10/04 05:27:32;;;;;;;16.85;6.60;;;359.00;1971.20;;;;;;5009860;28;20507;-78
2021/10/04 05:29:58;;;;;;;17.55;8.43;;;359.10;1971.20;;;;;;4993352;28;20034;-76
2021/10/04 05:32:24;;;;;;;14.98;7.78;;;359.10;1971.20;;;;;;5009841;28;20034;-78
2021/10/04 05:34:50;;;;;;;14.55;7.18;;;359.10;1971.20;;;;;;5009142;28;20045;-75
2021/10/04 05:37:16;;;;;;;13.35;6.28;;;359.20;1971.20;;;;;;5009480;28;20072;-76
2021/10/04 05:39:42;;;;;;;13.82;7.20;;;359.30;1971.20;;;;;;5074689;28;20106;-75
2021/10/04 05:42:08;;;;;;;13.68;6.68;;;359.30;1971.20;;;;;;5091846;28;20116;-77
2021/10/04 05:44:34;;;;;;;27.42;6.45;;;384.00;1971.20;;;;;;5091845;28;20067;-76
2021/10/04 05:47:00;;;;;;;16.05;6.00;;;384.10;1945.60;;;;;;5092044;28;20473;-77
2021/10/04 05:49:25;;;;;;;11.35;5.38;;;384.10;1945.60;;;;;;5090637;28;20137;-75
2021/10/04 05:51:51;;;;;;;8.88;4.63;;;384.20;1945.60;;;;;;5092091;28;20473;-80
2021/10/04 05:54:17;;;;;;;15.55;5.63;;;384.20;1945.60;;;;;;5091769;28;20543;-77
2021/10/04 05:56:43;;;;;;;12.77;5.30;;;384.30;1945.60;;;;;;5089943;28;20031;-75
2021/10/04 05:59:09;;;;;;;8.98;5.25;;;384.40;1920.00;;;;;;5091667;28;20031;-76
2021/10/04 06:01:34;;;;;;;7.80;4.78;;;384.40;1920.00;;;;;;5091323;28;20099;-76
2021/10/04 06:04:00;;;;;;;8.95;4.47;;;384.60;1920.00;;;;;;5091505;28;20095;-76
2021/10/04 06:06:26;;;;;;;7.35;4.80;;;384.60;1920.00;;;;;;5091415;28;20024;-76
2021/10/04 06:08:51;;;;;;;8.43;5.47;;;384.70;1894.40;;;;;;5091249;28;20527;-76
2021/10/04 06:11:48;;;;;;;10.35;5.05;;;384.80;1894.40;;;;;;5104267;28;20076;-76
2021/10/04 06:14:14;;;;;;;11.23;4.72;;;384.90;1894.40;;;;;;5094769;28;20020;-75
2021/10/04 06:16:55;;;;;;;9.10;4.68;;;409.60;1920.00;;;;;;5114955;28;20040;-75
2021/10/04 06:19:22;;;;;;;9.15;4.53;;;409.70;1920.00;;;;;;5096292;28;20031;-75
2021/10/04 06:21:48;;;;;;;10.50;5.55;;;409.80;1920.00;;;;;;5115231;28;20031;-75
2021/10/04 06:24:14;;;;;;;13.75;4.53;;;409.90;1894.40;;;;;;5115351;28;20087;-75
2021/10/04 06:26:40;;;;;;;11.48;4.55;;;410.00;1868.80;;;;;;5115057;28;20062;-75
2021/10/04 06:29:06;;;;;;;10.68;4.57;;;410.10;1868.80;;;;;;5115352;28;20020;-75
2021/10/04 06:31:32;;;;;;;9.25;4.85;;;410.20;1868.80;;;;;;5114937;28;20080;-75
2021/10/04 06:33:58;;;;;;;14.35;5.03;;;410.30;1843.20;;;;;;5097029;28;20427;-75
2021/10/04 06:36:37;;;;;;;9.52;5.05;;;410.40;1843.20;;;;;;5114702;28;20039;-75
2021/10/04 06:39:03;;;;;;;14.27;4.28;;;435.20;1843.20;;;;;;5096503;28;20058;-74
2021/10/04 06:41:29;;;;;;;11.77;4.75;;;435.30;1817.60;;;;;;5114996;28;20450;-75
2021/10/04 06:43:54;;;;;;;14.57;5.22;;;435.30;1817.60;;;;;;5114888;28;20102;-75
2021/10/04 06:46:20;;;;;;;6.32;3.72;;;435.40;1817.60;;;;;;5096640;28;20030;-75
2021/10/04 06:48:46;;;;;;;8.63;4.68;;;435.60;1792.00;;;;;;5114663;28;20057;-75
2021/10/04 06:51:12;;;;;;;9.32;3.95;;;435.60;1792.00;;;;;;5096184;28;20075;-75
2021/10/04 06:53:37;;;;;;;14.40;4.22;;;435.80;1766.40;;;;;;5114556;28;20076;-75
2021/10/04 06:56:03;;;;;;;10.70;4.53;;;435.80;1766.40;;;;;;5114682;28;20080;-75
2021/10/04 06:58:30;;;;;;;10.55;4.95;;;435.90;1766.40;;;;;;5114490;28;20015;-75
2021/10/04 07:00:58;;;;;;;16.92;5.05;;;436.10;1766.40;;;;;;5114336;28;20028;-76
2021/10/04 07:03:24;;;;;;;6.53;3.78;;;460.80;1766.40;;;;;;5096329;28;20081;-76
2021/10/04 07:05:51;;;;;;;14.43;3.75;;;460.90;1740.80;;;;;;5114223;28;20632;-76
2021/10/04 07:08:18;;;;;;;10.88;4.40;;;460.90;1740.80;;;;;;5114569;28;20034;-76
2021/10/04 07:10:58;;;;;;;9.90;3.95;;;461.10;1740.80;;;;;;5091738;28;20055;-76
2021/10/04 07:13:24;;;;;;;12.60;4.65;;;461.10;1715.20;;;;;;5093867;28;20020;-75
2021/10/04 07:15:50;;;;;;;13.63;4.63;;;461.20;1715.20;;;;;;5094016;28;20040;-76
2021/10/04 07:18:16;;;;;;;7.85;3.90;;;461.40;1715.20;;;;;;5092013;28;20063;-76
2021/10/04 07:20:43;;;;;;;12.57;4.05;;;461.50;1689.60;;;;;;5094033;28;20506;-77
2021/10/04 07:23:08;;;;;;;12.38;4.53;;;461.50;1689.60;;;;;;5093805;28;20063;-80
2021/10/04 07:25:35;;;;;;;9.32;3.78;;;461.60;1689.60;;;;;;5092376;28;20052;-75
2021/10/04 07:28:02;;;;;;;13.00;4.85;;;461.70;1689.60;;;;;;5093481;28;20027;-77
2021/10/04 07:30:28;;;;;;;12.93;5.45;;;486.40;1689.60;;;;;;5091725;28;20032;-77
2021/10/04 07:32:55;;;;;;;10.60;4.32;;;486.70;1664.00;;;;;;5093077;28;20038;-76
2021/10/04 07:35:22;;;;;;;9.40;4.38;;;486.50;1689.60;;;;;;5093361;28;20043;-77
2021/10/04 07:38:01;;;;;;;10.73;4.00;;;486.50;1664.00;;;;;;5093333;28;20381;-75
2021/10/04 07:40:27;;;;;;;13.38;3.90;;;486.50;1638.40;;;;;;5093442;28;20031;-75
2021/10/04 07:42:53;;;;;;;28.65;15.65;;;486.50;1638.40;;;;;;5093284;28;20030;-75
2021/10/04 07:45:20;;;;;;;7.40;4.05;;;486.50;1638.40;;;;;;5092715;28;20028;-75
2021/10/04 07:47:46;;;;;;;10.27;4.43;;;486.60;1638.40;;;;;;5092556;28;20027;-75
2021/10/04 07:50:16;;;;;;;7.40;4.43;;;486.70;1638.40;;;;;;5092095;28;20024;-75
2021/10/04 07:53:02;;;;;;;7.15;3.78;;;486.70;1638.40;;;;;;5092581;28;20032;-75
2021/10/04 07:55:28;;;;;;;9.88;4.68;;;486.80;1638.40;;;;;;5091225;28;20028;-76
2021/10/04 07:57:54;;;;;;;18.58;5.35;;;486.80;1638.40;;;;;;5092360;28;20032;-75
2021/10/04 08:00:20;;;;;;;12.88;4.13;;;486.90;1638.40;;;;;;5092576;28;20552;-76
2021/10/04 08:02:46;;;;;;;13.75;4.50;;;487.10;1612.80;;;;;;5092814;28;20031;-76
2021/10/04 08:05:13;;;;;;;14.43;4.78;;;487.00;1612.80;;;;;;5091895;28;20028;-75
2021/10/04 08:07:39;;;;;;;15.95;4.88;;;487.10;1612.80;;;;;;5092936;28;20416;-76
2021/10/04 08:10:08;;;;;;;19.55;4.47;;;487.10;1612.80;;;;;;5093034;28;20027;-77
2021/10/04 08:12:34;;;;;;;16.63;4.95;;;487.10;1612.80;;;;;;5113325;28;20031;-77
2021/10/04 08:15:01;;;;;;;10.93;4.28;;;487.20;1587.20;;;;;;5094307;28;20127;-76
2021/10/04 08:17:27;;;;;;;13.00;4.38;;;512.00;1612.80;;;;;;5095203;28;20027;-78
2021/10/04 08:19:55;;;;;;;9.95;4.28;;;512.00;1587.20;;;;;;5112965;28;20096;-77
2021/10/04 08:22:21;;;;;;;17.35;5.45;;;512.10;1587.20;;;;;;5112693;28;20036;-78
2021/10/04 08:24:47;;;;;;;14.45;4.35;;;512.20;1587.20;;;;;;5112798;28;20031;-75
2021/10/04 08:27:13;;;;;;;29.23;13.32;;;512.40;1587.20;;;;;;5112973;28;20046;-76
2021/10/04 08:29:38;;;;;;;10.10;4.40;;;512.60;1561.60;;;;;;5112584;28;20408;-76
2021/10/04 08:32:05;;;;;;;12.63;4.35;;;512.60;1561.60;;;;;;5109557;28;20389;-78
2021/10/04 08:34:31;;;;;;;15.93;4.32;;;512.60;1561.60;;;;;;5106862;28;20028;-78
2021/10/04 08:36:56;;;;;;;7.80;3.80;;;512.60;1561.60;;;;;;5100928;28;20020;-76
2021/10/04 08:39:23;;;;;;;11.18;4.65;;;512.70;1561.60;;;;;;5106472;28;20026;-79
2021/10/04 08:41:52;;;;;;;20.23;4.70;;;512.80;1561.60;;;;;;5091193;28;20034;-79
2021/10/04 08:44:18;;;;;;;9.93;4.07;;;512.90;1536.00;;;;;;5096761;28;20020;-79
2021/10/04 08:46:46;;;;;;;7.53;4.53;;;512.90;1536.00;;;;;;5102906;28;20755;-77
2021/10/04 08:49:14;;;;;;;10.57;5.32;;;537.70;1561.60;;;;;;5086850;28;20031;-76
2021/10/04 08:51:41;;;;;;;11.90;4.03;;;537.80;1536.00;;;;;;5066683;28;20043;-78
2021/10/04 08:54:11;;;;;;;8.52;4.60;;;537.80;1561.60;;;;;;5103701;28;20050;-77
2021/10/04 08:56:40;;;;;;;22.58;5.13;;;537.90;1536.00;;;;;;5084104;28;20044;-78
2021/10/04 08:59:13;;;;;;;10.77;4.45;;;538.00;1536.00;;;;;;5104073;28;20091;-77
2021/10/04 09:01:39;;;;;;;8.50;4.13;;;563.60;1561.60;;;;;;5102317;28;20075;-78
2021/10/04 09:04:05;;;;;;;20.35;5.75;;;538.10;1536.00;;;;;;5103602;28;20016;-76
2021/10/04 09:06:37;;;;;;;10.90;5.03;;;538.10;1536.00;;;;;;5085942;28;20020;-79
2021/10/04 09:09:12;;;;;;;11.13;4.88;;;538.10;1536.00;;;;;;5085591;28;20059;-77
2021/10/04 09:11:45;;;;;;;13.20;5.15;;;538.30;1536.00;;;;;;5086569;28;20050;-76
2021/10/04 09:14:30;;;;;;;9.25;4.85;;;538.50;1510.40;;;;;;5105042;28;20070;-78
2021/10/04 09:17:04;;;;;;;12.95;4.78;;;538.50;1510.40;;;;;;5087876;28;20023;-78
2021/10/04 09:19:53;;;;;;;9.50;4.90;;;563.20;1536.00;;;;;;5103606;28;20027;-78
2021/10/04 09:22:22;;;;;;;10.35;4.45;;;563.20;1510.40;;;;;;5103951;28;20019;-78
2021/10/04 09:24:48;;;;;;;15.30;4.85;;;538.00;1484.80;;;;;;5089769;28;20027;-76
2021/10/04 09:27:24;;;;;;;9.30;5.15;;;563.40;1510.40;;;;;;5109236;28;20106;-78
2021/10/04 09:29:51;;;;;;;10.20;5.15;;;563.50;1536.00;;;;;;5119610;28;20057;-78
2021/10/04 09:32:29;;;;;;;8.77;4.40;;;563.70;1510.40;;;;;;5108317;28;20024;-77
2021/10/04 09:35:18;;;;;;;8.70;4.40;;;563.70;1510.40;;;;;;5123790;28;20061;-78
2021/10/04 09:37:46;;;;;;;22.88;6.55;;;563.60;1510.40;;;;;;5116074;28;20016;-77
2021/10/04 09:40:31;;;;;;;10.75;4.63;;;563.70;1510.40;;;;;;5111895;28;20126;-75
2021/10/04 09:42:57;;;;;;;16.35;6.00;;;563.90;1484.80;;;;;;5112136;28;20384;-76
2021/10/04 09:45:24;;;;;;;11.45;4.97;;;564.10;1510.40;;;;;;5111807;28;20061;-75
2021/10/04 09:47:51;;;;;;;10.52;5.15;;;588.80;1484.80;;;;;;5094381;28;20030;-75
2021/10/04 09:50:18;;;;;;;15.25;5.43;;;588.80;1484.80;;;;;;5103558;27;20016;-76
2021/10/04 09:52:46;;;;;;;7.50;4.80;;;589.00;1484.80;;;;;;5095313;28;20358;-76
2021/10/04 09:55:26;;;;;;;13.77;5.15;;;589.10;1459.20;;;;;;5095558;28;20122;-77
2021/10/04 09:57:58;;;;;;;14.52;6.10;;;589.30;1459.20;;;;;;5094977;28;20103;-75
2021/10/04 10:00:25;;;;;;;8.13;5.05;;;589.50;1433.60;;;;;;5096834;28;20096;-75
2021/10/04 10:02:55;;;;;;;11.10;5.00;;;589.40;1433.60;;;;;;5081536;28;20473;-75
2021/10/04 10:05:23;;;;;;;10.27;4.78;;;589.60;1459.20;;;;;;5095112;28;20081;-75
2021/10/04 10:07:49;;;;;;;10.40;5.57;;;589.70;1433.60;;;;;;5095391;28;20036;-76
2021/10/04 10:10:16;;;;;;;8.95;4.65;;;614.40;1433.60;;;;;;5105227;28;20082;-76
2021/10/04 10:12:42;;;;;;;18.92;6.32;;;614.50;1408.00;;;;;;5107096;28;20020;-76
2021/10/04 10:15:08;;;;;;;19.27;5.97;;;614.50;1408.00;;;;;;5101000;28;20484;-77
2021/10/04 10:17:35;;;;;;;12.80;5.50;;;614.60;1408.00;;;;;;5115464;28;20023;-76
2021/10/04 10:20:01;;;;;;;11.95;6.15;;;614.70;1382.40;;;;;;5096920;28;20069;-76
2021/10/04 10:22:33;;;;;;;10.13;5.43;;;614.70;1408.00;;;;;;5096900;28;20096;-77
2021/10/04 10:25:00;;;;;;;12.18;5.30;;;614.80;1382.40;;;;;;5115425;28;20020;-78
2021/10/04 10:27:41;;;;;;;21.52;5.72;;;615.00;1382.40;;;;;;5114915;28;20020;-76
2021/10/04 10:30:18;;;;;;;11.05;4.88;;;615.00;1356.80;;;;;;5115285;28;20030;-76
2021/10/04 10:32:45;;;;;;;15.55;5.00;;;614.90;1382.40;;;;;;5094534;28;20492;-76
2021/10/04 10:35:10;;;;;;;10.98;5.82;;;615.30;1356.80;;;;;;5083520;28;20038;-76
2021/10/04 10:37:51;;;;;;;13.68;5.57;;;615.30;1356.80;;;;;;5103846;28;20011;-77
2021/10/04 10:40:26;;;;;;;14.05;6.40;;;640.00;1356.80;;;;;;5090682;28;20023;-76
2021/10/04 10:43:09;;;;;;;12.68;6.00;;;640.10;1331.20;;;;;;5107719;27;20022;-76
2021/10/04 10:45:47;;;;;;;9.60;5.63;;;640.00;1331.20;;;;;;5135563;27;20152;-77
2021/10/04 10:48:14;;;;;;;12.85;5.28;;;640.40;1331.20;;;;;;5126009;27;20139;-76
2021/10/04 10:50:43;;;;;;;9.98;5.63;;;640.60;1305.60;;;;;;5106712;28;20446;-77
2021/10/04 10:53:16;;;;;;;16.30;5.57;;;640.80;1305.60;;;;;;5094191;28;20081;-76
2021/10/04 10:56:00;;;;;;;19.40;6.07;;;640.90;1305.60;;;;;;5093931;28;20123;-75
2021/10/04 10:58:28;;;;;;;14.38;5.85;;;640.90;1280.00;;;;;;5094270;28;20036;-76
2021/10/04 11:01:13;;;;;;;9.57;5.43;;;665.60;1305.60;;;;;;5093079;28;20125;-76
2021/10/04 11:03:52;;;;;;;12.55;6.03;;;665.60;1305.60;;;;;;5109911;27;20035;-77
2021/10/04 11:06:18;;;;;;;11.18;5.82;;;665.90;1305.60;;;;;;5106754;28;20027;-76
2021/10/04 11:08:45;;;;;;;12.63;6.35;;;665.60;1305.60;;;;;;5112952;28;20047;-76
2021/10/04 11:11:12;;;;;;;11.73;5.57;;;665.90;1305.60;;;;;;5112962;28;20047;-76
2021/10/04 11:13:39;;;;;;;20.73;6.70;;;666.00;1305.60;;;;;;5112608;28;20016;-76
2021/10/04 11:16:05;;;;;;;10.60;5.88;;;666.30;1280.00;;;;;;5112790;28;20115;-76
2021/10/04 11:18:43;;;;;;;10.15;5.95;;;691.30;1228.80;;;;;;5112949;28;20094;-78
2021/10/04 11:21:15;;;;;;;12.85;5.13;;;691.40;1254.40;;;;;;5111382;28;20020;-76
2021/10/04 11:23:52;;;;;;;10.60;4.97;;;691.70;1254.40;;;;;;5110375;28;20043;-78
2021/10/04 11:26:20;;;;;;;16.67;5.63;;;691.60;1254.40;;;;;;5112804;28;20024;-79
2021/10/04 11:28:48;;;;;;;13.27;5.57;;;691.40;1280.00;;;;;;5119077;28;20015;-79
2021/10/04 11:31:20;;;;;;;11.85;5.65;;;691.70;1280.00;;;;;;5112693;28;20110;-78
2021/10/04 11:33:49;;;;;;;10.20;4.93;;;691.80;1254.40;;;;;;5094390;28;20023;-76
2021/10/04 11:36:16;;;;;;;13.25;6.05;;;691.60;1254.40;;;;;;5112769;28;20035;-77
2021/10/04 11:39:16;;;;;;;13.90;6.50;;;691.60;1254.40;;;;;;5112566;28;20525;-77
2021/10/04 11:41:49;;;;;;;14.32;5.90;;;691.60;1254.40;;;;;;5008414;28;20026;-79
2021/10/04 11:44:21;;;;;;;19.38;12.93;;;691.70;1228.80;;;;;;5029736;28;20117;-78
2021/10/04 11:46:52;;;;;;;12.13;5.75;;;691.40;1254.40;;;;;;5028761;28;20037;-77
2021/10/04 11:49:20;;;;;;;10.70;6.07;;;691.80;1254.40;;;;;;5021062;28;20096;-77
2021/10/04 11:51:50;;;;;;;9.13;5.60;;;691.70;1254.40;;;;;;5029603;28;20164;-77
2021/10/04 11:54:37;;;;;;;11.57;5.43;;;691.80;1254.40;;;;;;5012778;28;20028;-77
2021/10/04 11:57:05;;;;;;;11.60;5.80;;;691.80;1228.80;;;;;;5027028;28;20036;-79
2021/10/04 11:59:53;;;;;;;12.77;5.65;;;691.80;1228.80;;;;;;5029357;28;20025;-76
2021/10/04 12:02:24;;;;;;;11.27;6.10;;;691.80;1228.80;;;;;;5028967;28;20036;-76
2021/10/04 12:04:50;;;;;;;9.13;5.70;;;691.70;1228.80;;;;;;5029002;28;20152;-78
2021/10/04 12:07:20;;;;;;;10.82;5.88;;;691.80;1254.40;;;;;;5029444;28;20072;-78
2021/10/04 12:09:54;;;;;;;11.15;6.20;;;691.90;1254.40;;;;;;5014572;28;20021;-77
2021/10/04 12:12:20;;;;;;;8.82;6.30;;;716.90;1228.80;;;;;;5011712;28;20041;-78
2021/10/04 12:14:46;;;;;;;9.43;5.93;;;717.20;1228.80;;;;;;5031983;28;20044;-79
2021/10/04 12:17:13;;;;;;;13.00;5.88;;;716.90;1228.80;;;;;;5069650;28;20484;-77
2021/10/04 12:19:39;;;;;;;16.05;6.07;;;717.00;1228.80;;;;;;5093135;28;20015;-77
2021/10/04 12:22:04;;;;;;;12.07;5.80;;;717.20;1203.20;;;;;;5111382;28;20020;-77